createdAt,value
2019-01-11T00:03:07.131Z,99637.21
2019-01-11T00:11:08.162Z,99639.41
2019-01-11T00:13:38.456Z,99648.90
2019-01-11T00:16:09.019Z,99646.52
2019-01-11T00:21:40.279Z,99643.45
2019-01-11T00:24:11.030Z,99645.46
2019-01-11T00:26:41.302Z,99635.11
2019-01-11T00:29:11.662Z,99634.61
2019-01-11T00:34:24.262Z,99632.61
2019-01-11T00:36:54.725Z,99629.50
2019-01-11T00:39:24.965Z,99631.83
2019-01-11T00:41:55.173Z,99633.63
2019-01-11T00:44:25.360Z,99632.44
2019-01-11T00:46:55.647Z,99629.60
2019-01-11T00:49:27.539Z,99626.28
2019-01-11T00:51:57.771Z,99625.95
2019-01-11T00:54:28.069Z,99636.02
2019-01-11T00:59:47.847Z,99631.10
2019-01-11T01:02:18.079Z,99636.70
2019-01-11T01:05:07.798Z,99629.98
2019-01-11T01:07:38.030Z,99635.39
2019-01-11T01:10:08.480Z,99636.84
2019-01-11T01:12:38.784Z,99633.23
2019-01-11T01:18:24.561Z,99627.04
2019-01-11T01:20:55.183Z,99637.33
2019-01-11T01:23:25.546Z,99637.53
2019-01-11T01:25:55.825Z,99632.01
2019-01-11T01:31:08.565Z,99635.82
2019-01-11T01:33:39.040Z,99636.34
2019-01-11T01:36:09.359Z,99639.34
2019-01-11T01:38:39.867Z,99634.86
2019-01-11T01:41:10.097Z,99637.03
2019-01-11T01:43:40.612Z,99632.58
2019-01-11T01:46:10.862Z,99625.42
2019-01-11T01:48:41.176Z,99624.67
2019-01-11T01:51:11.477Z,99630.08
2019-01-11T01:53:41.754Z,99626.95
2019-01-11T01:56:11.972Z,99625.08
2019-01-11T01:58:42.239Z,99627.28
2019-01-11T02:01:12.486Z,99631.66
2019-01-11T02:03:42.790Z,99620.86
2019-01-11T02:06:13.202Z,99619.77
2019-01-11T02:11:31.762Z,99613.31
2019-01-11T02:14:01.997Z,99615.16
2019-01-11T02:16:32.285Z,99612.20
2019-01-11T02:19:02.539Z,99607.58
2019-01-11T02:21:32.881Z,99610.51
2019-01-11T02:26:45.610Z,99607.80
2019-01-11T02:29:15.916Z,99598.88
2019-01-11T02:31:46.174Z,99604.80
2019-01-11T02:34:16.399Z,99602.50
2019-01-11T02:39:35.932Z,99600.39
2019-01-11T02:42:06.262Z,99595.78
2019-01-11T02:44:36.489Z,99588.14
2019-01-11T02:47:08.750Z,99578.16
2019-01-11T02:49:40.326Z,99577.82
2019-01-11T02:52:35.512Z,99577.99
2019-01-11T02:55:07.345Z,99585.64
2019-01-11T02:57:37.606Z,99574.00
2019-01-11T03:02:46.995Z,99576.22
2019-01-11T03:08:24.986Z,99571.17
2019-01-11T03:13:57.574Z,99561.77
2019-01-11T03:19:17.345Z,99550.82
2019-01-11T03:21:47.537Z,99554.27
2019-01-11T03:24:17.845Z,99557.11
2019-01-11T03:26:48.246Z,99547.67
2019-01-11T03:35:14.250Z,99543.84
2019-01-11T03:38:04.651Z,99541.13
2019-01-11T03:40:35.196Z,99536.53
2019-01-11T03:46:07.801Z,99531.94
2019-01-11T03:48:38.313Z,99524.79
2019-01-11T03:51:08.518Z,99520.67
2019-01-11T03:53:38.736Z,99523.13
2019-01-11T03:58:58.666Z,99516.52
2019-01-11T04:01:28.894Z,99513.27
2019-01-11T04:03:59.147Z,99508.14
2019-01-11T04:06:29.464Z,99511.56
2019-01-11T04:08:59.950Z,99506.08
2019-01-11T04:11:30.209Z,99507.11
2019-01-11T04:14:06.540Z,99503.70
2019-01-11T04:20:05.327Z,99494.83
2019-01-11T04:25:41.015Z,99496.14
2019-01-11T04:28:11.357Z,99497.56
2019-01-11T04:30:41.675Z,99496.50
2019-01-11T04:33:11.976Z,99490.37
2019-01-11T04:35:42.175Z,99488.88
2019-01-11T04:38:12.477Z,99488.93
2019-01-11T04:46:23.307Z,99486.52
2019-01-11T04:48:53.676Z,99474.56
2019-01-11T04:51:23.921Z,99480.17
2019-01-11T04:53:54.213Z,99474.42
2019-01-11T04:59:06.432Z,99471.95
2019-01-11T05:01:36.624Z,99470.64
2019-01-11T05:04:25.952Z,99470.91
2019-01-11T05:06:56.239Z,99467.91
2019-01-11T05:09:26.567Z,99463.41
2019-01-11T05:11:56.861Z,99460.94
2019-01-11T05:14:27.045Z,99461.11
2019-01-11T05:16:57.304Z,99458.88
2019-01-11T05:19:34.818Z,99454.52
2019-01-11T05:27:35.423Z,99443.80
2019-01-11T05:30:08.372Z,99443.64
2019-01-11T05:32:38.576Z,99442.63
2019-01-11T05:35:08.887Z,99442.64
2019-01-11T05:37:39.095Z,99427.14
2019-01-11T05:40:12.549Z,99438.16
2019-01-11T05:42:42.854Z,99439.63
2019-01-11T05:45:13.241Z,99436.71
2019-01-11T05:47:43.469Z,99432.56
2019-01-11T05:50:16.056Z,99428.65
2019-01-11T05:52:46.343Z,99431.92
2019-01-11T05:55:35.541Z,99425.48
2019-01-11T05:58:24.698Z,99434.25
2019-01-11T06:06:59.440Z,99422.47
2019-01-11T06:09:41.850Z,99423.03
2019-01-11T06:15:08.241Z,99422.25
2019-01-11T06:17:38.542Z,99417.10
2019-01-11T06:23:08.411Z,99409.20
2019-01-11T06:25:38.821Z,99408.27
2019-01-11T06:28:09.069Z,99406.22
2019-01-11T06:30:44.588Z,99409.23
2019-01-11T06:33:14.868Z,99405.47
2019-01-11T06:35:45.130Z,99410.85
2019-01-11T06:49:16.956Z,99402.48
2019-01-11T06:51:47.239Z,99395.56
2019-01-11T06:54:17.462Z,99397.17
2019-01-11T06:56:47.758Z,99390.14
2019-01-11T06:59:18.023Z,99392.34
2019-01-11T07:01:48.225Z,99384.97
2019-01-11T07:04:18.452Z,99389.09
2019-01-11T07:10:10.883Z,99383.37
2019-01-11T07:12:41.275Z,99382.66
2019-01-11T07:15:11.738Z,99381.13
2019-01-11T07:17:42.048Z,99379.39
2019-01-11T07:20:13.498Z,99376.02
2019-01-11T07:22:45.987Z,99375.82
2019-01-11T07:28:19.413Z,99381.47
2019-01-11T07:31:08.831Z,99382.72
2019-01-11T07:36:40.201Z,99386.11
2019-01-11T07:42:15.223Z,99379.44
2019-01-11T07:44:47.963Z,99379.53
2019-01-11T07:47:18.181Z,99380.91
2019-01-11T07:52:37.557Z,99376.31
2019-01-11T07:55:14.035Z,99374.88
2019-01-11T07:57:44.282Z,99373.53
2019-01-11T08:00:14.753Z,99374.66
2019-01-11T08:02:45.052Z,99368.30
2019-01-11T08:05:15.277Z,99368.44
2019-01-11T08:10:54.050Z,99358.17
2019-01-11T08:13:26.113Z,99361.41
2019-01-11T08:15:56.771Z,99358.58
2019-01-11T08:18:27.709Z,99350.05
2019-01-11T08:20:58.050Z,99350.52
2019-01-11T08:23:28.642Z,99348.20
2019-01-11T08:25:59.065Z,99341.55
2019-01-11T08:31:34.600Z,99338.87
2019-01-11T08:40:06.084Z,99344.22
2019-01-11T08:42:38.896Z,99344.72
2019-01-11T08:45:11.913Z,99340.14
2019-01-11T08:47:44.101Z,99338.58
2019-01-11T08:50:17.414Z,99340.47
2019-01-11T08:58:13.957Z,99330.59
2019-01-11T09:00:50.147Z,99323.91
2019-01-11T09:03:20.538Z,99322.91
2019-01-11T09:05:50.825Z,99313.37
2019-01-11T09:08:21.015Z,99317.03
2019-01-11T09:11:03.080Z,99313.33
2019-01-11T09:13:33.724Z,99310.90
2019-01-11T09:16:04.135Z,99310.39
2019-01-11T09:18:53.548Z,99309.15
2019-01-11T09:29:55.902Z,99297.04
2019-01-11T09:32:48.249Z,99302.57
2019-01-11T09:35:35.577Z,99292.16
2019-01-11T09:38:06.577Z,99292.14
2019-01-11T09:40:57.903Z,99293.92
2019-01-11T09:43:28.157Z,99280.84
2019-01-11T09:45:58.881Z,99280.27
2019-01-11T09:48:29.148Z,99284.29
2019-01-11T09:50:59.377Z,99283.52
2019-01-11T09:53:29.693Z,99279.22
2019-01-11T09:56:31.223Z,99273.80
2019-01-11T09:59:01.729Z,99269.35
2019-01-11T10:01:32.055Z,99267.92
2019-01-11T10:04:02.426Z,99271.08
2019-01-11T10:09:34.350Z,99263.20
2019-01-11T10:12:16.679Z,99265.43
2019-01-11T10:14:46.933Z,99258.61
2019-01-11T10:17:17.309Z,99264.91
2019-01-11T10:19:48.298Z,99257.50
2019-01-11T10:22:20.215Z,99248.88
2019-01-11T10:24:50.397Z,99252.08
2019-01-11T10:27:26.697Z,99252.56
2019-01-11T10:29:56.978Z,99247.35
2019-01-11T10:32:39.272Z,99242.47
2019-01-11T10:35:10.546Z,99242.77
2019-01-11T10:38:04.893Z,99226.50
2019-01-11T10:49:02.748Z,99210.22
2019-01-11T10:51:33.308Z,99204.23
2019-01-11T10:59:41.649Z,99204.36
2019-01-11T11:02:12.152Z,99197.89
2019-01-11T11:04:42.348Z,99187.94
2019-01-11T11:10:10.655Z,99180.66
2019-01-11T11:12:52.612Z,99175.14
2019-01-11T11:15:24.067Z,99174.19
2019-01-11T11:17:54.323Z,99159.63
2019-01-11T11:20:24.549Z,99146.34
2019-01-11T11:22:54.806Z,99143.48
2019-01-11T11:25:25.100Z,99154.23
2019-01-11T11:27:55.290Z,99152.71
2019-01-11T11:30:25.520Z,99154.06
2019-01-11T11:33:14.701Z,99135.71
2019-01-11T11:35:45.085Z,99125.51
2019-01-11T11:38:15.368Z,99131.34
2019-01-11T11:40:45.564Z,99120.27
2019-01-11T11:43:15.861Z,99116.41
2019-01-11T11:45:46.128Z,99115.91
2019-01-11T11:48:16.386Z,99117.30
2019-01-11T11:50:46.667Z,99103.09
2019-01-11T11:53:16.851Z,99103.68
2019-01-11T11:55:52.914Z,99093.70
2019-01-11T11:58:23.168Z,99086.45
2019-01-11T12:00:53.373Z,99070.67
2019-01-11T12:03:23.578Z,99071.11
2019-01-11T12:05:53.739Z,99066.94
2019-01-11T12:08:23.977Z,99062.04
2019-01-11T12:10:54.253Z,99057.59
2019-01-11T12:13:24.627Z,99053.95
2019-01-11T12:15:54.930Z,99037.34
2019-01-11T12:18:25.121Z,99047.34
2019-01-11T12:20:55.379Z,99036.45
2019-01-11T12:23:27.855Z,99025.58
2019-01-11T12:25:58.342Z,99023.05
2019-01-11T12:28:28.667Z,99022.00
2019-01-11T12:30:59.122Z,99018.69
2019-01-11T12:33:29.390Z,99002.79
2019-01-11T12:35:59.599Z,99007.05
2019-01-11T12:38:30.013Z,98999.66
2019-01-11T12:41:00.259Z,98998.06
2019-01-11T12:43:30.482Z,99001.06
2019-01-11T12:46:00.827Z,98990.89
2019-01-11T12:48:31.222Z,98998.91
2019-01-11T12:51:01.554Z,98992.32
2019-01-11T12:53:33.429Z,98994.32
2019-01-11T12:56:03.971Z,98989.64
2019-01-11T13:01:56.029Z,98978.55
2019-01-11T13:04:26.273Z,98975.19
2019-01-11T13:06:56.912Z,98964.55
2019-01-11T13:09:33.446Z,98957.73
2019-01-11T13:12:14.939Z,98953.63
2019-01-11T13:14:57.448Z,98944.11
2019-01-11T13:17:27.705Z,98942.60
2019-01-11T13:19:58.095Z,98936.45
2019-01-11T13:22:28.355Z,98938.38
2019-01-11T13:24:58.632Z,98943.67
2019-01-11T13:27:28.917Z,98938.38
2019-01-11T13:29:59.167Z,98932.41
2019-01-11T13:32:29.653Z,98922.56
2019-01-11T13:35:20.612Z,98920.81
2019-01-11T13:37:51.216Z,98916.08
2019-01-11T13:40:25.739Z,98913.81
2019-01-11T13:42:57.041Z,98913.34
2019-01-11T13:45:27.283Z,98923.30
2019-01-11T13:47:57.530Z,98916.58
2019-01-11T13:50:46.904Z,98913.22
2019-01-11T13:53:18.832Z,98912.39
2019-01-11T13:55:49.304Z,98909.88
2019-01-11T13:58:19.904Z,98909.59
2019-01-11T14:00:50.249Z,98906.23
2019-01-11T14:03:20.559Z,98901.80
2019-01-11T14:05:50.765Z,98901.96
2019-01-11T14:11:03.631Z,98897.92
2019-01-11T14:16:31.782Z,98896.88
2019-01-11T14:19:01.960Z,98891.59
2019-01-11T14:21:32.352Z,98889.91
2019-01-11T14:24:02.602Z,98895.02
2019-01-11T14:29:16.899Z,98889.58
2019-01-11T14:32:06.275Z,98882.97
2019-01-11T14:34:36.612Z,98892.32
2019-01-11T14:37:25.045Z,98882.61
2019-01-11T14:39:55.323Z,98885.66
2019-01-11T14:42:25.521Z,98884.16
2019-01-11T14:44:56.159Z,98876.88
2019-01-11T14:47:26.489Z,98878.98
2019-01-11T14:49:56.676Z,98881.30
2019-01-11T14:52:26.967Z,98876.20
2019-01-11T14:54:57.369Z,98872.77
2019-01-11T14:57:27.573Z,98867.08
2019-01-11T15:02:52.570Z,98862.38
2019-01-11T15:08:05.491Z,98855.86
2019-01-11T15:13:35.922Z,98844.77
2019-01-11T15:16:06.654Z,98852.44
2019-01-11T15:18:37.582Z,98847.73
2019-01-11T15:21:07.798Z,98846.84
2019-01-11T15:23:38.084Z,98848.53
2019-01-11T15:26:27.522Z,98848.94
2019-01-11T15:28:57.968Z,98842.98
2019-01-11T15:31:28.179Z,98844.00
2019-01-11T15:33:59.539Z,98835.55
2019-01-11T15:36:36.730Z,98836.42
2019-01-11T15:42:11.873Z,98837.38
2019-01-11T15:44:42.269Z,98825.64
2019-01-11T15:50:10.436Z,98837.52
2019-01-11T15:55:43.200Z,98825.95
2019-01-11T16:00:56.718Z,98816.22
2019-01-11T16:03:28.689Z,98813.24
2019-01-11T16:10:02.658Z,98797.70
2019-01-11T16:13:03.264Z,98802.67
2019-01-11T16:15:39.191Z,98801.83
2019-01-11T16:18:14.051Z,98807.06
2019-01-11T16:20:55.895Z,98793.21
2019-01-11T16:23:26.374Z,98805.66
2019-01-11T16:25:56.699Z,98801.73
2019-01-11T16:28:28.973Z,98808.98
2019-01-11T16:31:11.050Z,98795.98
2019-01-11T16:33:41.265Z,98788.92
2019-01-11T16:36:11.514Z,98778.05
2019-01-11T16:38:41.749Z,98778.72
2019-01-11T16:41:12.003Z,98789.09
2019-01-11T16:43:42.456Z,98790.28
2019-01-11T16:48:55.388Z,98792.09
2019-01-11T16:51:25.687Z,98773.27
2019-01-11T16:53:55.941Z,98784.19
2019-01-11T16:56:26.092Z,98781.46
2019-01-11T16:58:57.358Z,98776.80
2019-01-11T17:01:27.604Z,98774.63
2019-01-11T17:07:08.064Z,98787.31
2019-01-11T17:09:38.321Z,98780.20
2019-01-11T17:12:08.501Z,98775.53
2019-01-11T17:14:38.872Z,98760.45
2019-01-11T17:17:09.085Z,98771.24
2019-01-11T17:19:39.287Z,98767.31
2019-01-11T17:22:09.906Z,98767.91
2019-01-11T17:24:40.227Z,98762.27
2019-01-11T17:27:10.451Z,98760.85
2019-01-11T17:29:46.964Z,98760.47
2019-01-11T17:32:19.026Z,98757.88
2019-01-11T17:34:49.793Z,98754.55
2019-01-11T17:37:20.983Z,98768.29
2019-01-11T17:39:51.812Z,98759.17
2019-01-11T17:42:22.345Z,98758.48
2019-01-11T17:44:52.555Z,98756.88
2019-01-11T17:47:22.815Z,98753.55
2019-01-11T17:49:52.992Z,98754.35
2019-01-11T17:58:05.030Z,98749.45
2019-01-11T18:00:35.455Z,98758.45
2019-01-11T18:03:07.585Z,98752.92
2019-01-11T18:05:37.799Z,98756.64
2019-01-11T18:08:27.396Z,98753.76
2019-01-11T18:10:58.105Z,98758.50
2019-01-11T18:16:10.769Z,98761.07
2019-01-11T18:18:41.060Z,98755.08
2019-01-11T18:21:11.643Z,98757.40
2019-01-11T18:26:31.932Z,98760.73
2019-01-11T18:31:50.125Z,98751.31
2019-01-11T18:34:20.371Z,98753.20
2019-01-11T18:36:50.557Z,98743.63
2019-01-11T18:39:20.833Z,98744.64
2019-01-11T18:44:42.987Z,98753.51
2019-01-11T18:47:15.005Z,98752.55
2019-01-11T18:50:01.787Z,98740.16
2019-01-11T18:52:32.065Z,98733.44
2019-01-11T18:55:02.401Z,98740.08
2019-01-11T18:57:48.430Z,98741.84
2019-01-11T19:00:21.539Z,98753.09
2019-01-11T19:02:52.807Z,98750.68
2019-01-11T19:05:23.109Z,98761.33
2019-01-11T19:07:53.472Z,98747.51
2019-01-11T19:10:23.822Z,98751.62
2019-01-11T19:12:54.017Z,98750.76
2019-01-11T19:15:27.221Z,98753.84
2019-01-11T19:17:57.522Z,98747.22
2019-01-11T19:20:29.458Z,98750.17
2019-01-11T19:23:00.791Z,98760.66
2019-01-11T19:25:31.335Z,98760.33
2019-01-11T19:28:01.640Z,98745.23
2019-01-11T19:33:14.527Z,98761.84
2019-01-11T19:35:44.793Z,98762.55
2019-01-11T19:38:15.079Z,98766.50
2019-01-11T19:40:45.648Z,98764.67
2019-01-11T19:43:16.239Z,98756.59
2019-01-11T19:45:55.063Z,98765.86
2019-01-11T19:51:38.932Z,98762.22
2019-01-11T19:54:09.138Z,98758.06
2019-01-11T19:56:45.521Z,98759.37
2019-01-11T19:59:15.733Z,98753.58
2019-01-11T20:04:52.793Z,98746.81
2019-01-11T20:07:23.341Z,98739.09
2019-01-11T20:09:53.550Z,98737.49
2019-01-11T20:12:23.835Z,98736.39
2019-01-11T20:14:54.112Z,98741.64
2019-01-11T20:17:24.302Z,98743.25
2019-01-11T20:19:55.170Z,98737.20
2019-01-11T20:22:44.833Z,98734.80
2019-01-11T20:25:28.460Z,98740.19
2019-01-11T20:28:10.555Z,98747.98
2019-01-11T20:33:40.665Z,98736.11
2019-01-11T20:36:22.594Z,98745.22
2019-01-11T20:38:52.820Z,98740.11
2019-01-11T20:41:46.098Z,98741.90
2019-01-11T20:44:22.521Z,98736.51
2019-01-11T20:47:12.248Z,98745.58
2019-01-11T20:52:26.475Z,98735.63
2019-01-11T20:54:56.929Z,98737.48
2019-01-11T20:57:27.130Z,98733.05
2019-01-11T20:59:57.417Z,98739.82
2019-01-11T21:02:27.663Z,98745.62
2019-01-11T21:04:58.282Z,98748.78
2019-01-11T21:07:28.497Z,98756.14
2019-01-11T21:09:59.111Z,98751.80
2019-01-11T21:12:29.364Z,98744.88
2019-01-11T21:14:59.839Z,98744.92
2019-01-11T21:17:30.414Z,98744.30
2019-01-11T21:20:00.641Z,98740.40
2019-01-11T21:22:30.882Z,98748.31
2019-01-11T21:25:01.284Z,98748.38
2019-01-11T21:27:31.520Z,98731.55
2019-01-11T21:30:14.869Z,98760.83
2019-01-11T21:32:45.396Z,98744.70
2019-01-11T21:35:15.765Z,98755.92
2019-01-11T21:37:45.990Z,98760.77
2019-01-11T21:40:18.159Z,98744.22
2019-01-11T21:43:28.071Z,98738.68
2019-01-11T21:51:56.134Z,98760.25
2019-01-11T21:54:26.414Z,98745.41
2019-01-11T21:56:56.616Z,98748.52
2019-01-11T21:59:26.880Z,98744.83
2019-01-11T22:02:03.681Z,98741.66
2019-01-11T22:04:34.056Z,98743.52
2019-01-11T22:07:04.583Z,98740.09
2019-01-11T22:09:34.889Z,98740.38
2019-01-11T22:12:05.292Z,98746.08
2019-01-11T22:14:35.554Z,98743.33
2019-01-11T22:17:05.806Z,98738.88
2019-01-11T22:19:35.989Z,98740.12
2019-01-11T22:22:06.476Z,98742.75
2019-01-11T22:24:36.795Z,98746.75
2019-01-11T22:27:07.031Z,98747.70
2019-01-11T22:29:37.343Z,98743.52
2019-01-11T22:32:07.920Z,98755.81
2019-01-11T22:34:38.144Z,98742.30
2019-01-11T22:37:26.269Z,98740.06
2019-01-11T22:39:56.752Z,98752.45
2019-01-11T22:42:47.209Z,98748.25
2019-01-11T22:45:17.505Z,98756.89
2019-01-11T22:47:47.709Z,98753.63
2019-01-11T22:55:38.754Z,98745.66
2019-01-11T22:58:09.061Z,98747.42
2019-01-11T23:03:47.090Z,98749.53
2019-01-11T23:06:55.607Z,98749.59
2019-01-11T23:12:37.934Z,98743.70
2019-01-11T23:15:14.254Z,98735.16
2019-01-11T23:17:57.790Z,98737.08
2019-01-11T23:20:27.990Z,98736.57
2019-01-11T23:23:17.236Z,98743.06
2019-01-11T23:25:47.568Z,98754.41
2019-01-11T23:28:17.900Z,98749.59
2019-01-11T23:30:48.097Z,98756.00
2019-01-11T23:33:18.450Z,98761.73
2019-01-11T23:35:49.107Z,98754.69
2019-01-11T23:38:19.319Z,98752.09
2019-01-11T23:40:50.961Z,98755.77
2019-01-11T23:43:21.328Z,98752.38
2019-01-11T23:48:50.253Z,98763.72
2019-01-11T23:51:20.819Z,98759.27
2019-01-11T23:53:51.108Z,98754.78
2019-01-11T23:56:21.396Z,98751.64
2019-01-11T23:58:51.567Z,98747.19
